Time;durP1;ratioP1;P1;durP2;ratioP2;P2;SDS_P1;SDS_P2;PMS_P1;PMS_P2;Temp;Humidity;BMP_temperature;BMP_pressure;BME280_temperature;BME280_humidity;BME280_pressure;Samples;Min_cycle;Max_cycle;Signal;HPM_P1;HPM_P2
2024/04/12 00:01:16;;;;;;;3.70;2.70;;;8.10;99.90;;;;;;5414894;26;20331;-83
2024/04/12 00:03:42;;;;;;;3.35;2.58;;;9.20;99.90;;;;;;5379434;26;20795;-81
2024/04/12 00:06:15;;;;;;;4.13;2.88;;;8.20;99.90;;;;;;5377984;26;20717;-83
2024/04/12 00:08:50;;;;;;;3.13;2.50;;;8.20;99.90;;;;;;5410727;26;20414;-83
2024/04/12 00:11:18;;;;;;;3.30;2.60;;;8.30;99.90;;;;;;5380258;26;20339;-82
2024/04/12 00:13:48;;;;;;;2.88;2.60;;;9.80;99.90;;;;;;5415101;26;20364;-82
2024/04/12 00:16:17;;;;;;;3.80;2.83;;;8.20;99.90;;;;;;5415666;26;20335;-82
2024/04/12 00:18:45;;;;;;;5.20;2.33;;;8.10;99.90;;;;;;5415446;26;20331;-82
2024/04/12 00:21:12;;;;;;;5.03;2.70;;;8.00;99.90;;;;;;5378370;26;20346;-81
2024/04/12 00:23:40;;;;;;;3.10;2.40;;;8.10;99.90;;;;;;5386966;26;20332;-82
2024/04/12 00:26:11;;;;;;;5.32;2.90;;;6.60;99.90;;;;;;5411983;26;21143;-82
2024/04/12 00:28:37;;;;;;;6.13;2.60;;;8.20;99.90;;;;;;5378667;26;20372;-82
2024/04/12 00:31:06;;;;;;;2.55;2.35;;;8.40;99.90;;;;;;5409691;26;20850;-82
2024/04/12 00:33:33;;;;;;;4.07;2.70;;;8.30;99.90;;;;;;5379263;26;20335;-82
2024/04/12 00:36:13;;;;;;;5.55;3.10;;;8.90;99.90;;;;;;5381095;26;20331;-82
2024/04/12 00:38:42;;;;;;;4.57;2.80;;;8.40;99.90;;;;;;5383946;26;20452;-83
2024/04/12 00:41:19;;;;;;;2.60;2.40;;;9.20;99.90;;;;;;5415258;26;20335;-81
2024/04/12 00:43:49;;;;;;;3.35;2.38;;;8.10;99.90;;;;;;5382787;26;20441;-82
2024/04/12 00:46:18;;;;;;;3.10;2.60;;;8.20;99.90;;;;;;5415144;26;20707;-82
2024/04/12 00:48:44;;;;;;;3.70;2.80;;;;;;;;;;5384486;26;20435;-82
2024/04/12 00:51:15;;;;;;;2.85;2.50;;;8.40;99.90;;;;;;5383839;26;20367;-81
2024/04/12 00:53:43;;;;;;;3.17;2.70;;;8.30;99.90;;;;;;5414939;26;20327;-82
2024/04/12 00:56:12;;;;;;;2.53;2.33;;;8.30;99.90;;;;;;5413358;26;20336;-82
2024/04/12 00:58:41;;;;;;;2.65;2.45;;;8.40;99.90;;;;;;5410274;26;20846;-82
2024/04/12 01:01:15;;;;;;;5.00;2.90;;;8.20;99.90;;;;;;5408585;26;20662;-81
2024/04/12 01:03:46;;;;;;;2.95;2.63;;;8.70;99.90;;;;;;5378561;26;20794;-84
2024/04/12 01:06:29;;;;;;;4.15;2.50;;;8.50;99.90;;;;;;5414871;26;20332;-84
2024/04/12 01:08:58;;;;;;;4.00;2.58;;;8.30;99.90;;;;;;5390479;26;20379;-83
2024/04/12 01:11:27;;;;;;;3.08;2.50;;;8.50;99.90;;;;;;5387606;26;20343;-82
2024/04/12 01:13:53;;;;;;;4.63;2.70;;;8.10;99.90;;;;;;5384357;26;20332;-84
2024/04/12 01:16:24;;;;;;;3.50;2.90;;;8.20;99.90;;;;;;5418142;26;20410;-83
2024/04/12 01:18:55;;;;;;;5.47;2.60;;;8.30;99.90;;;;;;5403480;26;20361;-83
2024/04/12 01:21:26;;;;;;;3.67;2.55;;;8.10;99.90;;;;;;5401066;26;20336;-84
2024/04/12 01:23:53;;;;;;;2.75;2.53;;;8.30;99.90;;;;;;5413332;26;20362;-84
2024/04/12 01:26:23;;;;;;;3.22;2.30;;;7.90;99.90;;;;;;5383761;26;20331;-83
2024/04/12 01:28:49;;;;;;;3.63;2.40;;;8.10;99.90;;;;;;5384446;26;20714;-83
2024/04/12 01:31:15;;;;;;;3.50;2.90;;;7.90;99.90;;;;;;5416437;26;20520;-83
2024/04/12 01:34:31;;;;;;;2.83;2.50;;;8.00;99.90;;;;;;5384230;26;21043;-83
2024/04/12 01:37:00;;;;;;;3.13;2.65;;;7.80;99.90;;;;;;5412610;26;20339;-84
2024/04/12 01:39:28;;;;;;;2.72;2.53;;;7.60;99.90;;;;;;5386188;26;20672;-83
2024/04/12 01:41:54;;;;;;;3.57;2.73;;;7.80;99.90;;;;;;5384915;26;20831;-83
2024/04/12 01:44:24;;;;;;;3.08;2.78;;;8.00;99.90;;;;;;5385089;26;20344;-84
2024/04/12 01:46:52;;;;;;;4.30;2.30;;;8.10;99.90;;;;;;5420950;26;20368;-83
2024/04/12 01:49:22;;;;;;;2.97;2.67;;;8.10;99.90;;;;;;5434059;26;20323;-85
2024/04/12 01:51:48;;;;;;;3.20;2.90;;;8.00;99.90;;;;;;5408490;26;20367;-84
2024/04/12 01:54:13;;;;;;;3.07;2.23;;;7.90;99.90;;;;;;5400794;26;20427;-84
2024/04/12 01:56:48;;;;;;;3.70;2.57;;;8.10;99.90;;;;;;5387812;26;20378;-82
2024/04/12 01:59:15;;;;;;;5.13;3.00;;;8.00;99.90;;;;;;5423539;26;20371;-84
2024/04/12 02:01:46;;;;;;;3.53;2.80;;;7.70;99.90;;;;;;5438954;26;20435;-81
2024/04/12 02:04:15;;;;;;;3.30;2.70;;;8.00;99.90;;;;;;5399234;26;20416;-84
2024/04/12 02:06:42;;;;;;;4.50;2.60;;;7.70;99.90;;;;;;5393012;26;20847;-84
2024/04/12 02:09:14;;;;;;;2.75;2.53;;;8.10;99.90;;;;;;5385546;26;20915;-85
2024/04/12 02:11:40;;;;;;;3.35;2.70;;;8.20;99.90;;;;;;5387203;26;20367;-82
2024/04/12 02:14:06;;;;;;;2.97;2.10;;;8.10;99.90;;;;;;5418035;26;20680;-83
2024/04/12 02:16:31;;;;;;;5.40;2.72;;;8.00;99.90;;;;;;5417039;26;20372;-83
2024/04/12 02:18:58;;;;;;;5.95;2.92;;;8.00;99.90;;;;;;5418038;26;20427;-81
2024/04/12 02:21:31;;;;;;;3.25;2.45;;;8.00;99.90;;;;;;5385350;26;20413;-84
2024/04/12 02:24:00;;;;;;;3.90;2.70;;;8.30;99.90;;;;;;5413841;26;20324;-82
2024/04/12 02:26:25;;;;;;;3.38;2.55;;;8.00;99.90;;;;;;5412275;26;20331;-81
2024/04/12 02:28:52;;;;;;;3.67;2.95;;;8.10;99.90;;;;;;5381262;26;20437;-82
2024/04/12 02:31:19;;;;;;;4.55;2.45;;;8.10;99.90;;;;;;5414402;26;20335;-81
2024/04/12 02:33:45;;;;;;;2.95;2.65;;;8.10;99.90;;;;;;5382039;26;20373;-82
2024/04/12 02:36:16;;;;;;;3.40;2.90;;;8.10;99.90;;;;;;5381315;26;20339;-82
2024/04/12 02:38:43;;;;;;;3.20;2.90;;;7.80;99.90;;;;;;5380938;26;20328;-81
2024/04/12 02:41:16;;;;;;;4.30;2.53;;;7.80;99.90;;;;;;5413201;26;20455;-82
2024/04/12 02:43:42;;;;;;;3.60;2.70;;;7.60;99.90;;;;;;5413261;26;20331;-81
2024/04/12 02:46:11;;;;;;;3.30;2.65;;;7.70;99.90;;;;;;5414439;26;20328;-82
2024/04/12 02:48:43;;;;;;;3.80;3.08;;;7.60;99.90;;;;;;5417701;26;20725;-81
2024/04/12 02:51:12;;;;;;;4.70;3.10;;;7.80;99.90;;;;;;5380821;26;20340;-82
2024/04/12 02:53:38;;;;;;;5.47;3.00;;;6.80;99.90;;;;;;5411780;26;21979;-82
2024/04/12 02:56:09;;;;;;;5.38;2.70;;;7.80;99.90;;;;;;5381375;26;20365;-82
2024/04/12 02:58:39;;;;;;;5.50;2.80;;;7.80;99.90;;;;;;5383365;26;20428;-82
2024/04/12 03:01:15;;;;;;;3.90;2.50;;;7.90;99.90;;;;;;5413664;26;21123;-81
2024/04/12 03:03:46;;;;;;;5.13;3.10;;;8.10;99.90;;;;;;5381409;26;20336;-81
2024/04/12 03:06:12;;;;;;;3.10;2.80;;;;;;;;;;5385167;26;20347;-82
2024/04/12 03:08:42;;;;;;;3.58;2.88;;;7.90;99.90;;;;;;5388027;26;20343;-83
2024/04/12 03:11:14;;;;;;;3.55;2.70;;;7.70;99.90;;;;;;5532675;21;20549;-79
2024/04/12 03:13:41;;;;;;;4.22;2.53;;;7.80;99.90;;;;;;5470048;26;20360;-81
2024/04/12 03:16:14;;;;;;;2.95;2.47;;;8.00;99.90;;;;;;5468548;26;20362;-79
2024/04/12 03:18:46;;;;;;;3.47;2.90;;;7.40;99.90;;;;;;5467553;26;20877;-81
2024/04/12 03:21:15;;;;;;;3.20;2.00;;;7.70;99.90;;;;;;5463638;26;20353;-82
2024/04/12 03:23:45;;;;;;;3.38;2.53;;;7.30;99.90;;;;;;5467103;26;20318;-82
2024/04/12 03:26:15;;;;;;;2.80;2.50;;;7.50;99.90;;;;;;5467615;26;20342;-81
2024/04/12 03:28:41;;;;;;;3.67;2.63;;;7.70;99.90;;;;;;5466474;26;20408;-81
2024/04/12 03:31:08;;;;;;;3.90;2.70;;;7.40;99.90;;;;;;5469704;26;20879;-80
2024/04/12 03:33:42;;;;;;;5.85;3.15;;;7.40;99.90;;;;;;5467084;26;20355;-81
2024/04/12 03:36:25;;;;;;;4.53;2.90;;;7.20;99.90;;;;;;5471563;26;20761;-80
2024/04/12 03:41:57;;;;;;;3.78;2.65;;;7.30;99.90;;;;;;5468778;26;20326;-82
2024/04/12 03:44:25;;;;;;;3.60;3.07;;;7.30;99.90;;;;;;5467906;26;20801;-82
2024/04/12 03:46:52;;;;;;;3.50;2.63;;;7.10;99.90;;;;;;5466481;26;20396;-82
2024/04/12 03:49:21;;;;;;;6.00;2.92;;;7.20;99.90;;;;;;5467671;26;20329;-82
2024/04/12 03:51:49;;;;;;;3.20;2.90;;;7.10;99.90;;;;;;5466469;26;20359;-81
2024/04/12 03:54:19;;;;;;;3.53;2.80;;;7.30;99.90;;;;;;5464157;26;20330;-81
2024/04/12 03:56:51;;;;;;;4.38;2.58;;;7.20;99.90;;;;;;5466505;26;20323;-82
2024/04/12 03:59:18;;;;;;;3.30;2.80;;;7.20;99.90;;;;;;5463283;26;20322;-81
2024/04/12 04:01:47;;;;;;;3.40;2.80;;;7.00;99.90;;;;;;5464176;26;20333;-81
2024/04/12 04:04:17;;;;;;;5.63;2.70;;;7.20;99.90;;;;;;5466168;26;20339;-82
2024/04/12 04:06:44;;;;;;;3.70;2.88;;;6.90;99.90;;;;;;5467638;26;20322;-81
2024/04/12 04:09:11;;;;;;;3.22;2.80;;;7.30;99.90;;;;;;5450103;26;20658;-81
2024/04/12 04:11:42;;;;;;;4.22;3.00;;;7.10;99.90;;;;;;5452354;26;20410;-82
2024/04/12 04:14:09;;;;;;;4.85;3.60;;;7.20;99.90;;;;;;5454323;26;20377;-81
2024/04/12 04:16:38;;;;;;;4.90;3.30;;;7.20;99.90;;;;;;5456221;26;20377;-81
2024/04/12 04:19:04;;;;;;;6.78;3.90;;;7.20;99.90;;;;;;5465599;26;20390;-81
2024/04/12 04:21:33;;;;;;;4.80;3.50;;;7.30;99.90;;;;;;5466776;26;20325;-83
2024/04/12 04:24:08;;;;;;;4.13;3.63;;;7.30;99.90;;;;;;5467213;26;20330;-80
2024/04/12 04:26:37;;;;;;;3.75;3.40;;;7.20;99.90;;;;;;5494679;26;20647;-80
2024/04/12 04:29:09;;;;;;;3.70;3.40;;;7.10;99.90;;;;;;5505602;26;20370;-83
2024/04/12 04:31:49;;;;;;;4.47;3.20;;;7.30;99.90;;;;;;5481868;26;20346;-83
2024/04/12 04:34:17;;;;;;;4.27;3.20;;;7.40;99.90;;;;;;5489448;26;20380;-81
2024/04/12 04:36:43;;;;;;;3.60;2.90;;;7.10;99.90;;;;;;5486829;26;20322;-81
2024/04/12 04:39:15;;;;;;;5.55;3.03;;;7.10;99.90;;;;;;5464300;26;20340;-81
2024/04/12 04:41:45;;;;;;;5.20;3.30;;;7.40;99.90;;;;;;5474351;26;20430;-80
2024/04/12 04:44:14;;;;;;;3.43;3.13;;;7.60;99.90;;;;;;5471012;26;20318;-82
2024/04/12 04:46:44;;;;;;;5.05;3.65;;;7.60;99.90;;;;;;5468820;26;20419;-82
2024/04/12 04:49:11;;;;;;;3.47;3.17;;;7.50;99.90;;;;;;5468134;26;20358;-82
2024/04/12 04:51:39;;;;;;;4.00;3.60;;;7.20;99.90;;;;;;5476756;26;20836;-82
2024/04/12 04:54:05;;;;;;;4.30;3.60;;;7.30;99.90;;;;;;5458046;26;20967;-80
2024/04/12 04:56:34;;;;;;;4.32;3.40;;;7.50;99.90;;;;;;5458094;26;20322;-81
2024/04/12 04:58:59;;;;;;;3.70;3.40;;;7.40;99.90;;;;;;5468876;26;20334;-82
2024/04/12 05:01:25;;;;;;;5.75;4.10;;;7.60;99.90;;;;;;5469917;26;20423;-81
2024/04/12 05:03:52;;;;;;;6.13;3.75;;;7.70;99.90;;;;;;5470397;26;20322;-81
2024/04/12 05:06:27;;;;;;;3.90;3.50;;;7.10;99.90;;;;;;5468393;26;20361;-82
2024/04/12 05:09:00;;;;;;;3.72;3.25;;;;;;;;;;5461638;26;20325;-81
2024/04/12 05:11:29;;;;;;;3.67;3.38;;;7.70;99.90;;;;;;5471254;26;20321;-82
2024/04/12 05:14:05;;;;;;;4.90;3.08;;;7.60;99.90;;;;;;5471139;26;20318;-83
2024/04/12 05:16:32;;;;;;;5.30;3.50;;;7.70;99.90;;;;;;5491903;26;20326;-80
2024/04/12 05:19:07;;;;;;;5.95;3.40;;;7.60;99.90;;;;;;5470749;26;20372;-82
2024/04/12 05:21:40;;;;;;;3.80;3.40;;;7.00;99.90;;;;;;5462758;26;20373;-82
2024/04/12 05:24:09;;;;;;;4.95;3.25;;;7.50;99.90;;;;;;5473377;26;20330;-80
2024/04/12 05:26:41;;;;;;;5.40;3.67;;;7.70;99.90;;;;;;5476650;26;20333;-81
2024/04/12 05:29:10;;;;;;;5.00;3.63;;;7.80;99.90;;;;;;5471801;26;20323;-80
2024/04/12 05:31:36;;;;;;;4.73;3.00;;;7.90;99.90;;;;;;5471152;26;20431;-82
2024/04/12 05:34:04;;;;;;;4.50;3.07;;;7.60;99.90;;;;;;5470789;26;20333;-80
2024/04/12 05:36:36;;;;;;;4.43;3.20;;;7.70;99.90;;;;;;5470386;26;20354;-82
2024/04/12 05:39:08;;;;;;;3.83;3.22;;;8.40;99.90;;;;;;5467865;26;20375;-80
2024/04/12 05:41:44;;;;;;;5.53;3.35;;;7.70;99.90;;;;;;5468331;26;20701;-82
2024/04/12 05:44:10;;;;;;;3.63;3.10;;;7.70;99.90;;;;;;5468398;26;20322;-81
2024/04/12 05:46:39;;;;;;;3.60;3.30;;;7.60;99.90;;;;;;5468136;26;20878;-81
2024/04/12 05:49:09;;;;;;;5.47;3.17;;;7.70;99.90;;;;;;5469485;26;20715;-82
2024/04/12 05:51:44;;;;;;;5.32;2.80;;;7.60;99.90;;;;;;5477639;26;20334;-82
2024/04/12 05:54:19;;;;;;;4.07;3.10;;;7.60;99.90;;;;;;5473521;26;20325;-82
2024/04/12 05:56:46;;;;;;;3.67;3.20;;;7.80;99.90;;;;;;5467015;26;20381;-81
2024/04/12 05:59:16;;;;;;;4.53;3.00;;;7.90;99.90;;;;;;5465013;26;20386;-81
2024/04/12 06:01:46;;;;;;;3.40;3.10;;;7.90;99.90;;;;;;5471625;26;20409;-81
2024/04/12 06:04:19;;;;;;;5.13;3.00;;;7.80;99.90;;;;;;5466085;26;20933;-81
2024/04/12 06:06:49;;;;;;;5.15;2.90;;;7.80;99.90;;;;;;5463114;26;20342;-81
2024/04/12 06:09:21;;;;;;;3.40;3.03;;;8.00;99.90;;;;;;5466416;26;20444;-79
2024/04/12 06:11:50;;;;;;;4.00;3.30;;;7.80;99.90;;;;;;5472381;26;20314;-82
2024/04/12 06:14:21;;;;;;;4.35;3.10;;;8.10;99.90;;;;;;5502603;26;20354;-79
2024/04/12 06:16:55;;;;;;;6.97;3.80;;;8.20;99.90;;;;;;5494578;26;20338;-77
2024/04/12 06:19:22;;;;;;;4.30;3.70;;;8.40;99.90;;;;;;5503971;26;20334;-82
2024/04/12 06:21:48;;;;;;;3.72;3.42;;;8.30;99.90;;;;;;5492378;26;20349;-83
2024/04/12 06:24:26;;;;;;;4.43;4.03;;;8.40;99.90;;;;;;5467923;26;20446;-82
2024/04/12 06:26:57;;;;;;;4.18;3.53;;;8.60;99.90;;;;;;5453200;26;20338;-82
2024/04/12 06:29:26;;;;;;;4.10;3.65;;;8.80;99.90;;;;;;5502490;26;20323;-79
2024/04/12 06:31:53;;;;;;;5.45;4.15;;;;;;;;;;5513162;26;20359;-77
2024/04/12 06:34:19;;;;;;;6.30;4.18;;;9.00;99.90;;;;;;5509097;26;20407;-82
2024/04/12 06:36:56;;;;;;;4.35;3.95;;;8.80;99.90;;;;;;5491796;26;20326;-83
2024/04/12 06:39:26;;;;;;;5.72;3.80;;;8.90;99.90;;;;;;5460342;26;20978;-82
2024/04/12 06:41:57;;;;;;;5.93;4.45;;;8.70;99.90;;;;;;5453393;26;20931;-82
2024/04/12 06:44:24;;;;;;;5.13;3.80;;;9.10;99.90;;;;;;5455054;26;20373;-82
2024/04/12 06:46:58;;;;;;;4.90;3.60;;;9.10;99.90;;;;;;5455165;26;20329;-82
2024/04/12 06:49:29;;;;;;;5.47;3.78;;;9.10;99.90;;;;;;5453374;26;20329;-82
2024/04/12 06:52:11;;;;;;;4.18;3.78;;;9.10;99.90;;;;;;5455584;26;20329;-83
2024/04/12 06:54:42;;;;;;;5.60;3.50;;;9.80;99.90;;;;;;5456883;26;20309;-82
2024/04/12 06:57:09;;;;;;;4.10;3.70;;;10.00;99.90;;;;;;5460520;26;20702;-83
2024/04/12 06:59:35;;;;;;;6.57;3.50;;;9.70;99.90;;;;;;5458169;26;20340;-83
2024/04/12 07:02:05;;;;;;;5.32;3.80;;;9.90;99.90;;;;;;5470683;26;20401;-79
2024/04/12 07:04:31;;;;;;;4.13;3.72;;;10.00;99.90;;;;;;5473986;26;20309;-80
2024/04/12 07:06:57;;;;;;;4.88;3.53;;;9.90;99.90;;;;;;5474893;26;20371;-77
2024/04/12 07:09:23;;;;;;;4.35;3.63;;;10.30;99.90;;;;;;5475663;26;20321;-78
2024/04/12 07:11:51;;;;;;;5.85;3.72;;;10.40;99.90;;;;;;5475363;26;20407;-80
2024/04/12 07:14:22;;;;;;;4.05;3.67;;;10.50;99.90;;;;;;5474928;26;20325;-79
2024/04/12 07:16:48;;;;;;;5.40;3.90;;;10.30;99.90;;;;;;5475744;26;20309;-80
2024/04/12 07:19:18;;;;;;;5.43;3.92;;;;;;;;;;5475543;26;20341;-78
2024/04/12 07:21:49;;;;;;;4.13;3.83;;;10.90;99.90;;;;;;5476235;26;20321;-79
2024/04/12 07:24:15;;;;;;;8.10;3.92;;;11.00;99.90;;;;;;5498386;26;20350;-78
2024/04/12 07:27:03;;;;;;;5.93;3.88;;;10.60;99.90;;;;;;5511960;26;20366;-79
2024/04/12 07:29:31;;;;;;;5.25;3.25;;;10.90;99.90;;;;;;5511953;26;20318;-77
2024/04/12 07:31:57;;;;;;;4.68;3.47;;;11.00;99.90;;;;;;5512318;26;20342;-78
2024/04/12 07:34:22;;;;;;;3.95;3.33;;;11.30;99.90;;;;;;5512122;26;20376;-78
2024/04/12 07:36:52;;;;;;;4.97;3.40;;;;;;;;;;5512206;26;20354;-77
2024/04/12 07:39:17;;;;;;;4.10;3.10;;;11.50;99.90;;;;;;5511447;26;20354;-80
2024/04/12 07:41:48;;;;;;;5.80;3.57;;;11.60;99.90;;;;;;5512205;26;20311;-77
2024/04/12 07:44:26;;;;;;;5.07;3.50;;;;;;;;;;5507053;26;20358;-82
2024/04/12 07:46:51;;;;;;;5.28;3.00;;;12.20;99.90;;;;;;5490097;26;20326;-82
2024/04/12 07:49:18;;;;;;;4.68;2.90;;;12.20;99.90;;;;;;5492174;26;20357;-81
2024/04/12 07:51:47;;;;;;;4.50;2.88;;;12.00;99.90;;;;;;5490874;26;20326;-80
2024/04/12 07:54:13;;;;;;;3.90;2.80;;;12.20;99.90;;;;;;5493228;26;20326;-82
2024/04/12 07:56:43;;;;;;;6.60;3.50;;;12.30;99.90;;;;;;5487223;26;20894;-83
2024/04/12 07:59:25;;;;;;;4.90;3.10;;;13.40;99.90;;;;;;5490772;26;20915;-82
2024/04/12 08:01:51;;;;;;;4.18;2.95;;;12.90;99.90;;;;;;5487937;26;20326;-82
2024/04/12 08:04:24;;;;;;;4.73;2.63;;;12.30;99.90;;;;;;5489798;26;20451;-83
2024/04/12 08:06:56;;;;;;;3.28;2.70;;;12.90;99.90;;;;;;5490447;26;20659;-83
2024/04/12 08:09:24;;;;;;;5.15;2.50;;;13.00;99.90;;;;;;5490033;26;20366;-81
2024/04/12 08:11:58;;;;;;;3.50;2.85;;;13.00;99.90;;;;;;5493333;26;20326;-82
2024/04/12 08:14:26;;;;;;;3.53;2.70;;;12.70;99.90;;;;;;5489015;26;20326;-82
2024/04/12 08:16:53;;;;;;;5.40;2.63;;;13.30;99.90;;;;;;5488383;26;20330;-80
2024/04/12 08:19:22;;;;;;;4.95;3.10;;;13.70;99.90;;;;;;5489347;26;20351;-83
2024/04/12 08:21:49;;;;;;;2.72;2.45;;;13.60;99.90;;;;;;5494351;26;20319;-80
2024/04/12 08:24:15;;;;;;;3.35;2.75;;;13.60;99.90;;;;;;5471527;26;20396;-82
2024/04/12 08:26:47;;;;;;;3.55;2.90;;;16.20;99.90;;;;;;5454249;26;20365;-82
2024/04/12 08:29:20;;;;;;;4.07;3.13;;;14.20;99.90;;;;;;5454155;26;20358;-81
2024/04/12 08:31:47;;;;;;;4.65;2.80;;;13.50;99.90;;;;;;5452006;26;20682;-82
2024/04/12 08:34:14;;;;;;;5.10;3.00;;;15.70;99.90;;;;;;5452166;26;20375;-82
2024/04/12 08:36:40;;;;;;;4.93;2.70;;;14.20;99.90;;;;;;5452697;26;20329;-82
2024/04/12 08:39:25;;;;;;;3.80;2.60;;;13.90;99.90;;;;;;5455522;26;20324;-83
2024/04/12 08:41:59;;;;;;;3.30;2.90;;;14.60;99.90;;;;;;5459076;26;20336;-82
2024/04/12 08:44:26;;;;;;;6.00;3.20;;;14.30;99.90;;;;;;5455800;26;20368;-82
2024/04/12 08:46:53;;;;;;;5.90;3.33;;;14.70;99.90;;;;;;5450764;26;20351;-82
2024/04/12 08:49:22;;;;;;;5.30;2.90;;;14.50;99.90;;;;;;5452717;26;20709;-83
2024/04/12 08:51:53;;;;;;;5.80;3.20;;;15.20;99.90;;;;;;5453989;26;20325;-82
2024/04/12 08:54:20;;;;;;;6.13;3.10;;;16.20;99.90;;;;;;5451839;26;20329;-82
2024/04/12 08:56:46;;;;;;;5.05;3.30;;;14.30;99.90;;;;;;5452030;26;20325;-82
2024/04/12 08:59:17;;;;;;;5.07;3.70;;;15.30;99.90;;;;;;5450213;26;20413;-81
2024/04/12 09:01:45;;;;;;;4.78;3.15;;;14.70;99.90;;;;;;5449771;26;20378;-82
2024/04/12 09:04:16;;;;;;;4.45;3.30;;;14.70;99.90;;;;;;5451202;26;20369;-80
2024/04/12 09:06:41;;;;;;;5.10;3.53;;;14.90;99.90;;;;;;5450107;26;20379;-81
2024/04/12 09:09:13;;;;;;;5.50;3.30;;;15.80;99.90;;;;;;5457386;26;20934;-80
2024/04/12 09:11:45;;;;;;;5.43;3.03;;;15.40;99.90;;;;;;5470508;21;20604;-81
2024/04/12 09:14:19;;;;;;;4.93;3.47;;;15.30;99.90;;;;;;5455987;26;20424;-83
2024/04/12 09:16:48;;;;;;;4.30;3.63;;;15.10;99.90;;;;;;5452779;26;20329;-83
2024/04/12 09:19:14;;;;;;;5.88;3.40;;;15.20;99.90;;;;;;5455174;26;20357;-83
2024/04/12 09:24:42;;;;;;;5.47;3.60;;;15.60;99.90;;;;;;5432229;26;20937;-82
2024/04/12 09:27:09;;;;;;;5.57;3.42;;;15.30;99.90;;;;;;5457629;26;20857;-83
2024/04/12 09:29:45;;;;;;;6.22;3.40;;;15.70;99.90;;;;;;5463592;26;20325;-82
2024/04/12 09:34:56;;;;;;;8.68;3.65;;;15.50;99.90;;;;;;5469355;26;20369;-82
2024/04/12 09:37:43;;;;;;;4.35;2.92;;;16.00;99.90;;;;;;5470966;26;20394;-83
2024/04/12 09:45:45;;;;;;;7.43;4.13;;;17.50;99.90;;;;;;5467661;26;20365;-82
2024/04/12 10:38:38;;;;;;;5.20;3.63;;;17.70;99.90;;;;;;5423578;26;20937;-81
2024/04/12 10:41:07;;;;;;;3.80;3.15;;;18.20;99.90;;;;;;5431908;26;20324;-84
2024/04/12 10:43:35;;;;;;;5.03;3.72;;;17.90;99.90;;;;;;5427662;26;20711;-82
2024/04/12 10:46:04;;;;;;;5.82;3.45;;;;;;;;;;5453434;26;20337;-83
2024/04/12 10:48:30;;;;;;;6.70;3.92;;;18.30;99.90;;;;;;5459220;26;20895;-83
2024/04/12 10:50:57;;;;;;;6.03;3.53;;;17.70;99.90;;;;;;5459752;26;20329;-85
2024/04/12 10:53:23;;;;;;;6.03;3.50;;;17.90;99.90;;;;;;5458959;26;20812;-83
2024/04/12 10:55:51;;;;;;;5.10;3.00;;;17.60;99.90;;;;;;5458744;26;20313;-82
2024/04/12 10:58:18;;;;;;;3.40;3.00;;;18.00;99.90;;;;;;5458769;26;20329;-82
2024/04/12 11:00:49;;;;;;;3.70;2.80;;;18.70;99.90;;;;;;5459874;26;20340;-83
2024/04/12 11:03:24;;;;;;;4.20;2.70;;;18.60;99.90;;;;;;5433974;26;20352;-83
2024/04/12 11:05:51;;;;;;;5.30;2.95;;;18.20;99.90;;;;;;5440136;26;20406;-83
2024/04/12 11:08:19;;;;;;;7.80;2.80;;;19.30;99.90;;;;;;5458313;26;20313;-81
2024/04/12 11:11:15;;;;;;;5.10;2.70;;;18.80;1.00;;;;;;5459346;26;20329;-82
2024/04/12 11:13:45;;;;;;;4.90;2.80;;;20.60;1.00;;;;;;5453057;26;20336;-82
2024/04/12 11:33:04;;;;;;;4.15;2.25;;;20.00;1.00;;;;;;5424684;26;20486;-83
2024/04/12 11:35:30;;;;;;;4.13;2.58;;;20.00;1.00;;;;;;5450471;26;20321;-83
2024/04/12 11:37:56;;;;;;;5.03;2.70;;;21.60;1.00;;;;;;5455982;26;20333;-82
2024/04/12 11:40:24;;;;;;;3.63;2.38;;;21.70;1.00;;;;;;5454695;26;20355;-83
2024/04/12 11:42:56;;;;;;;3.53;2.67;;;22.20;1.00;;;;;;5458230;26;20426;-82
2024/04/12 11:45:25;;;;;;;3.55;2.80;;;22.00;1.00;;;;;;5429447;26;20476;-83
2024/04/12 11:47:51;;;;;;;4.70;2.30;;;23.30;1.00;;;;;;5421628;26;20323;-84
2024/04/12 11:50:17;;;;;;;2.50;2.30;;;23.10;1.00;;;;;;5420919;26;20455;-84
2024/04/12 11:52:43;;;;;;;3.40;2.60;;;23.20;1.00;;;;;;5421608;26;20324;-82
2024/04/12 11:55:12;;;;;;;3.20;2.15;;;22.60;1.00;;;;;;5420106;26;20347;-82
2024/04/12 11:57:37;;;;;;;3.28;2.50;;;24.50;1.00;;;;;;5420513;26;20375;-83
2024/04/12 12:00:08;;;;;;;4.05;2.80;;;22.90;1.00;;;;;;5421818;26;20343;-83
2024/04/12 12:02:36;;;;;;;3.70;2.20;;;22.00;1.00;;;;;;5455818;26;20377;-83
2024/04/12 12:05:01;;;;;;;2.90;2.00;;;23.00;1.00;;;;;;5457424;26;20325;-83
2024/04/12 12:07:27;;;;;;;4.97;2.20;;;22.00;1.00;;;;;;5455544;26;20387;-83
2024/04/12 12:09:55;;;;;;;4.70;2.40;;;23.00;1.00;;;;;;5424628;26;21416;-83
2024/04/12 12:12:26;;;;;;;4.68;2.30;;;22.30;1.00;;;;;;5421461;26;20428;-83
2024/04/12 12:14:51;;;;;;;3.00;2.70;;;22.90;1.00;;;;;;5419609;26;20363;-83
2024/04/12 12:17:18;;;;;;;3.77;2.27;;;;;;;;;;5421274;26;20328;-83
2024/04/12 12:19:51;;;;;;;3.03;2.10;;;22.50;1.00;;;;;;5422138;26;20406;-83
2024/04/12 12:22:18;;;;;;;4.20;2.97;;;22.40;1.00;;;;;;5422022;26;20819;-83
2024/04/12 12:24:44;;;;;;;3.90;3.00;;;21.60;1.00;;;;;;5431836;26;20367;-83
2024/04/12 12:27:11;;;;;;;3.07;1.87;;;22.50;1.00;;;;;;5419908;26;20438;-83
2024/04/12 12:29:38;;;;;;;3.42;2.20;;;22.90;1.00;;;;;;5418788;26;20328;-83
2024/04/12 12:32:07;;;;;;;4.82;2.15;;;22.40;1.00;;;;;;5397840;26;20360;-83
2024/04/12 12:34:38;;;;;;;2.67;2.20;;;23.50;1.00;;;;;;5429723;26;20922;-82
2024/04/12 12:37:04;;;;;;;4.10;2.08;;;25.40;1.00;;;;;;5452103;26;20361;-82
2024/04/12 12:39:31;;;;;;;3.50;2.22;;;22.90;1.00;;;;;;5431507;26;20331;-83
2024/04/12 12:41:57;;;;;;;2.40;1.90;;;24.60;1.00;;;;;;5417315;26;20371;-82
2024/04/12 12:44:23;;;;;;;3.70;1.80;;;25.70;1.00;;;;;;5415342;26;20879;-82
2024/04/12 12:46:49;;;;;;;3.20;2.10;;;25.40;1.00;;;;;;5417264;26;20331;-80
2024/04/12 12:49:19;;;;;;;3.08;2.10;;;22.60;1.00;;;;;;5421639;26;20324;-82
2024/04/12 12:51:47;;;;;;;4.85;2.42;;;23.10;1.00;;;;;;5453144;26;20364;-81
2024/04/12 12:54:13;;;;;;;7.18;2.50;;;23.00;1.00;;;;;;5421911;26;20845;-82
2024/04/12 12:56:40;;;;;;;3.00;2.20;;;22.60;1.00;;;;;;5451302;26;20345;-83
2024/04/12 12:59:06;;;;;;;3.90;2.08;;;21.70;1.00;;;;;;5450684;26;20794;-83
2024/04/12 13:01:34;;;;;;;5.10;2.40;;;21.80;1.00;;;;;;5452149;26;20384;-82
2024/04/12 13:04:07;;;;;;;3.30;2.10;;;23.80;1.00;;;;;;5432786;26;20751;-82
2024/04/12 13:06:36;;;;;;;2.40;2.13;;;23.50;1.00;;;;;;5455715;26;20320;-82
2024/04/12 13:09:04;;;;;;;3.60;2.00;;;21.40;1.00;;;;;;5454897;26;20701;-81
2024/04/12 13:11:29;;;;;;;3.10;1.83;;;21.90;1.00;;;;;;5457448;26;20410;-81
2024/04/12 13:13:56;;;;;;;3.83;2.20;;;22.50;1.00;;;;;;5456165;26;20325;-81
2024/04/12 13:16:21;;;;;;;4.00;2.00;;;22.30;1.00;;;;;;5456903;26;20347;-81
2024/04/12 13:18:51;;;;;;;3.25;2.03;;;22.60;1.00;;;;;;5432418;26;20705;-81
2024/04/12 13:21:18;;;;;;;3.75;2.10;;;21.60;1.00;;;;;;5419955;26;20410;-81
2024/04/12 13:23:46;;;;;;;4.13;2.10;;;22.60;1.00;;;;;;5435180;26;20363;-82
2024/04/12 13:26:22;;;;;;;3.47;2.28;;;21.40;1.00;;;;;;5455445;26;20402;-81
2024/04/12 13:28:52;;;;;;;4.93;1.80;;;23.40;1.00;;;;;;5454018;26;20832;-81
2024/04/12 13:31:25;;;;;;;1.97;1.77;;;22.40;1.00;;;;;;5438177;26;20859;-81
2024/04/12 13:33:54;;;;;;;4.80;2.00;;;22.20;1.00;;;;;;5419537;26;20343;-80
2024/04/12 13:36:21;;;;;;;2.72;2.22;;;22.70;1.00;;;;;;5419946;26;20324;-81
2024/04/12 13:38:48;;;;;;;2.30;1.70;;;22.50;1.00;;;;;;5420184;26;20430;-81
2024/04/12 13:41:18;;;;;;;2.60;1.70;;;22.60;1.00;;;;;;5432981;26;20333;-82
2024/04/12 13:43:46;;;;;;;4.40;2.10;;;22.70;1.00;;;;;;5454833;26;20337;-82
2024/04/12 13:51:49;;;;;;;2.20;1.83;;;23.50;1.00;;;;;;5431147;26;20397;-81
2024/04/12 13:54:20;;;;;;;3.70;2.10;;;22.60;1.00;;;;;;5430373;26;20691;-81
2024/04/12 13:56:47;;;;;;;3.70;1.60;;;23.00;1.00;;;;;;5450285;26;20333;-81
2024/04/12 13:59:12;;;;;;;2.28;1.58;;;23.30;1.00;;;;;;5462708;26;20321;-80
2024/04/12 14:01:41;;;;;;;2.90;1.70;;;23.10;1.00;;;;;;5458671;26;20373;-81
2024/04/12 14:04:13;;;;;;;2.67;1.80;;;24.80;1.00;;;;;;5457753;26;20427;-81
2024/04/12 14:06:39;;;;;;;2.22;1.60;;;23.60;1.00;;;;;;5450891;26;20337;-82
2024/04/12 14:09:09;;;;;;;4.18;1.90;;;24.40;1.00;;;;;;5455975;26;20907;-81
2024/04/12 14:11:35;;;;;;;4.30;1.85;;;22.50;1.00;;;;;;5455052;26;20357;-81
2024/04/12 14:14:03;;;;;;;3.13;1.80;;;22.80;1.00;;;;;;5452879;26;20337;-81
2024/04/12 14:16:32;;;;;;;5.78;2.08;;;22.10;1.00;;;;;;5455251;26;20384;-82
2024/04/12 14:19:00;;;;;;;4.05;1.90;;;22.20;1.00;;;;;;5447143;26;21168;-82
2024/04/12 14:21:26;;;;;;;3.97;2.10;;;23.20;1.00;;;;;;5418307;26;20340;-80
2024/04/12 14:23:52;;;;;;;3.05;1.95;;;22.90;1.00;;;;;;5433818;26;20337;-81
2024/04/12 14:26:17;;;;;;;3.35;1.70;;;23.20;1.00;;;;;;5455722;26;20373;-81
2024/04/12 14:28:43;;;;;;;4.13;1.80;;;22.40;1.00;;;;;;5455272;26;20721;-80
2024/04/12 14:31:09;;;;;;;3.50;1.63;;;23.20;1.00;;;;;;5455640;26;20349;-82
2024/04/12 14:33:38;;;;;;;3.17;1.80;;;23.10;1.00;;;;;;5442149;26;20335;-82
2024/04/12 14:36:04;;;;;;;2.40;1.90;;;22.60;1.00;;;;;;5421537;26;20356;-81